Darstellungsparameter: Aktuell verwendete Einstellungen:
Skalierung der Graphiken ... ?
xyx+y,   Skalierungsfaktor:      Skalierung: Modus: x, Faktor: 1
Darstellungszeitraum ... ?
Vom - - bis: - -   Zeitraum: 30.05.2005 - 05.06.2005
Min/Max/Avg-Anzeige ... ?
Zeige MMA aktuell
Zeige MMA Monat
Zeige MMA alles
Zeige --A aktuell
Zeige --A Monat
Zeige --A alles
Keine MMA-Anzeige
MMA:
Keine MMA-Graphiken
MMA-Basis: 30.05.2005 - 05.06.2005
Quicknavigation für Darstellung... ?
Tage:      1T, 2T, 3T, 5T -1T -2T -3T -5T +1T +2T +3T +5T
Wochen: 1W, 2W, 3W -1W -2W -3W +1W +2W +3W
Monate: 1M, 3M, 6M -1M -3M -6M +1M +3M +6M
Jahre:    1J, 3J, 5J, 10J -1J -3J -5J -10J +1J +3J +5J +10J
Nutze für die Darstellung ... ?
Originaldaten oder Mittelwerte auf ...
Stundenbasis Tagesbasis Wochenbasis
Monatsbasis Jahresbasis      Datenbasis: Original-Daten
Darstellen als:
Statistik (Auto) Statistik J:M      Darstellung:
Zur Graphik,    zurück zur Übersicht aller Sensoren.
 
Tabellarische Datenbersicht: ?
 
Sensor: Nr:Datum:Temp:Feuchte:Taupunkt:
Aussen-T/F 1 30-05-2005 00:03:03 20.7 C 47 % 8.99 C
2 30-05-2005 00:15:03 20.8 C 48 % 9.4 C
3 30-05-2005 00:27:03 20.5 C 50 % 9.73 C
4 30-05-2005 00:39:03 20.7 C 49 % 9.61 C
5 30-05-2005 00:51:04 20.3 C 50 % 9.54 C
6 30-05-2005 01:03:04 20 C 51 % 9.56 C
7 30-05-2005 01:15:04 19.4 C 53 % 9.58 C
8 30-05-2005 01:27:04 20.1 C 48 % 8.76 C
9 30-05-2005 01:39:04 19.4 C 54 % 9.86 C
10 30-05-2005 01:51:04 16.6 C 73 % 11.74 C
11 30-05-2005 02:03:04 16 C 79 % 12.36 C
12 30-05-2005 02:15:04 15.7 C 82 % 12.64 C
13 30-05-2005 02:27:04 15.6 C 87 % 13.45 C
14 30-05-2005 02:39:04 15.5 C 89 % 13.7 C
15 30-05-2005 02:51:04 15.2 C 89 % 13.4 C
16 30-05-2005 03:03:04 15.2 C 90 % 13.57 C
17 30-05-2005 03:15:04 15.1 C 91 % 13.64 C
18 30-05-2005 03:27:04 15.3 C 92 % 14.01 C
19 30-05-2005 03:39:04 15.6 C 92 % 14.31 C
20 30-05-2005 03:51:04 15.2 C 92 % 13.91 C
21 30-05-2005 04:03:04 15 C 92 % 13.71 C
22 30-05-2005 04:15:04 14.9 C 93 % 13.78 C
23 30-05-2005 04:27:04 14.7 C 93 % 13.58 C
24 30-05-2005 04:39:04 14.7 C 93 % 13.58 C
25 30-05-2005 04:51:05 15 C 93 % 13.88 C
Sensor: Nr:Datum:Temp:Feuchte:Taupunkt:
Aussen-T/F 26 30-05-2005 05:03:05 14.9 C 94 % 13.94 C
27 30-05-2005 05:15:05 15 C 93 % 13.88 C
28 30-05-2005 05:27:05 14.5 C 94 % 13.55 C
29 30-05-2005 05:39:05 14.7 C 94 % 13.74 C
30 30-05-2005 05:51:05 14.9 C 95 % 14.11 C
31 30-05-2005 06:03:05 14.8 C 95 % 14.01 C
32 30-05-2005 06:15:05 14.9 C 95 % 14.11 C
33 30-05-2005 06:27:05 14.7 C 95 % 13.91 C
34 30-05-2005 06:39:05 14.8 C 95 % 14.01 C
35 30-05-2005 06:51:05 14.7 C 95 % 13.91 C
36 30-05-2005 07:03:05 14.5 C 94 % 13.55 C
37 30-05-2005 07:15:02 14.4 C 91 % 12.95 C
38 30-05-2005 07:27:02 14.4 C 89 % 12.61 C
39 30-05-2005 07:39:03 14.1 C 87 % 11.97 C
40 30-05-2005 07:51:02 14 C 86 % 11.7 C
41 30-05-2005 08:03:02 14 C 86 % 11.7 C
42 30-05-2005 08:15:01 13.9 C 86 % 11.6 C
43 30-05-2005 08:27:01 13.7 C 85 % 11.23 C
44 30-05-2005 08:39:02 13.4 C 85 % 10.93 C
45 30-05-2005 08:51:03 13.2 C 85 % 10.74 C
46 30-05-2005 09:03:03 12.7 C 87 % 10.59 C
47 30-05-2005 09:15:03 12.9 C 88 % 10.96 C
48 30-05-2005 09:27:03 12.7 C 89 % 10.94 C
49 30-05-2005 09:39:03 12.9 C 90 % 11.3 C
50 30-05-2005 09:51:02 12.5 C 90 % 10.91 C
Sensor: Nr:Datum:Temp:Feuchte:Taupunkt:
Aussen-T/F 51 30-05-2005 10:03:03 12.8 C 91 % 11.37 C
52 30-05-2005 10:15:03 12.7 C 91 % 11.27 C
53 30-05-2005 10:27:04 12.7 C 91 % 11.27 C
54 30-05-2005 10:39:03 12.9 C 91 % 11.47 C
55 30-05-2005 10:51:01 13.3 C 89 % 11.53 C
56 30-05-2005 11:03:01 13.4 C 87 % 11.28 C
57 30-05-2005 11:15:01 13.7 C 86 % 11.4 C
58 30-05-2005 11:27:02 14.7 C 83 % 11.85 C
59 30-05-2005 11:39:01 15.6 C 77 % 11.59 C
60 30-05-2005 11:51:02 15.7 C 76 % 11.48 C
61 30-05-2005 12:03:02 15.3 C 76 % 11.1 C
62 30-05-2005 12:15:02 15.3 C 76 % 11.1 C
63 30-05-2005 12:27:02 14.7 C 78 % 10.91 C
64 30-05-2005 12:39:01 14.7 C 80 % 11.29 C
65 30-05-2005 12:51:02 15.1 C 79 % 11.49 C
66 30-05-2005 13:03:03 15.5 C 74 % 10.89 C
67 30-05-2005 13:15:03 15.8 C 74 % 11.18 C
68 30-05-2005 13:27:03 16.2 C 72 % 11.15 C
69 30-05-2005 13:39:02 16.7 C 69 % 10.99 C
70 30-05-2005 13:51:02 17.2 C 67 % 11.02 C
71 30-05-2005 14:03:02 17.4 C 67 % 11.21 C
72 30-05-2005 14:15:02 17.7 C 66 % 11.27 C
73 30-05-2005 14:27:02 17.8 C 65 % 11.14 C
74 30-05-2005 14:39:02 17.8 C 64 % 10.9 C
75 30-05-2005 14:51:02 17.7 C 65 % 11.04 C
Sensor: Nr:Datum:Temp:Feuchte:Taupunkt:
Aussen-T/F 76 30-05-2005 15:03:01 17.6 C 64 % 10.72 C
77 30-05-2005 15:15:01 18.3 C 63 % 11.14 C
78 30-05-2005 15:27:01 18.2 C 61 % 10.56 C
79 30-05-2005 15:39:02 18.1 C 63 % 10.95 C
80 30-05-2005 15:51:03 17.6 C 66 % 11.18 C
81 30-05-2005 16:03:02 17.6 C 69 % 11.85 C
82 30-05-2005 16:15:02 17.2 C 69 % 11.47 C
83 30-05-2005 16:27:02 17.1 C 71 % 11.8 C
84 30-05-2005 16:39:02 15.7 C 75 % 11.28 C
85 30-05-2005 16:51:02 15 C 80 % 11.58 C
86 30-05-2005 17:03:01 14 C 83 % 11.16 C
87 30-05-2005 17:15:02 13.5 C 87 % 11.38 C
88 30-05-2005 17:27:02 13.4 C 88 % 11.45 C
89 30-05-2005 17:39:01 13.4 C 90 % 11.79 C
90 30-05-2005 17:51:02 13.4 C 91 % 11.96 C
91 30-05-2005 18:03:01 13.1 C 91 % 11.67 C
92 30-05-2005 18:15:01 13.1 C 90 % 11.5 C
93 30-05-2005 18:27:01 13 C 90 % 11.4 C
94 30-05-2005 18:39:02 13 C 90 % 11.4 C
95 30-05-2005 18:51:02 13 C 89 % 11.23 C
96 30-05-2005 19:03:01 13.1 C 89 % 11.33 C
97 30-05-2005 19:15:02 13.1 C 89 % 11.33 C
98 30-05-2005 19:27:02 13 C 88 % 11.06 C
99 30-05-2005 19:39:02 13.3 C 88 % 11.36 C
100 30-05-2005 19:51:02 13.4 C 86 % 11.11 C
Sensor: Nr:Datum:Temp:Feuchte:Taupunkt:
Aussen-T/F 101 30-05-2005 20:03:03 13.4 C 85 % 10.93 C
102 30-05-2005 20:15:04 13.4 C 84 % 10.75 C
103 30-05-2005 20:27:04 13.4 C 87 % 11.28 C
104 30-05-2005 20:39:03 13.4 C 88 % 11.45 C
105 30-05-2005 20:51:04 13.3 C 83 % 10.48 C
106 30-05-2005 21:03:04 13.3 C 80 % 9.93 C
107 30-05-2005 21:15:03 13.1 C 83 % 10.28 C
108 30-05-2005 21:27:03 12.9 C 83 % 10.09 C
109 30-05-2005 21:39:03 13 C 82 % 10 C
110 30-05-2005 21:51:02 13.1 C 82 % 10.1 C
111 30-05-2005 22:03:02 13.1 C 80 % 9.73 C
112 30-05-2005 22:15:02 13.1 C 82 % 10.1 C
113 30-05-2005 22:27:02 12.8 C 81 % 9.62 C
114 30-05-2005 22:39:03 12.7 C 72 % 7.79 C
115 30-05-2005 22:51:02 12.6 C 71 % 7.49 C
116 30-05-2005 23:03:02 12.3 C 72 % 7.4 C
117 30-05-2005 23:15:02 12.3 C 74 % 7.8 C
118 30-05-2005 23:27:02 12.2 C 74 % 7.71 C
119 30-05-2005 23:39:02 12 C 74 % 7.52 C
120 30-05-2005 23:51:02 12 C 74 % 7.52 C
121 31-05-2005 00:03:02 11.9 C 75 % 7.62 C
122 31-05-2005 00:15:03 11.9 C 75 % 7.62 C
123 31-05-2005 00:27:04 11.9 C 75 % 7.62 C
124 31-05-2005 00:39:01 11.9 C 73 % 7.22 C
125 31-05-2005 00:51:02 11.8 C 73 % 7.12 C
Sensor: Nr:Datum:Temp:Feuchte:Taupunkt:
Aussen-T/F 126 31-05-2005 01:03:02 11.6 C 73 % 6.93 C
127 31-05-2005 01:15:02 11.3 C 73 % 6.64 C
128 31-05-2005 01:27:03 11.4 C 72 % 6.54 C
129 31-05-2005 01:39:02 11.4 C 71 % 6.34 C
130 31-05-2005 01:51:02 11.4 C 71 % 6.34 C
131 31-05-2005 02:03:02 11.3 C 72 % 6.44 C
132 31-05-2005 02:15:02 11.3 C 71 % 6.24 C
133 31-05-2005 02:27:03 11.3 C 72 % 6.44 C
134 31-05-2005 02:39:02 11 C 71 % 5.95 C
135 31-05-2005 02:52:03 10.8 C 73 % 6.16 C
136 31-05-2005 03:04:03 10.5 C 73 % 5.87 C
137 31-05-2005 03:16:04 10.5 C 75 % 6.26 C
138 31-05-2005 03:28:04 10.1 C 75 % 5.88 C
139 31-05-2005 03:40:02 9.8 C 78 % 6.15 C
140 31-05-2005 03:52:02 9.5 C 79 % 6.05 C
141 31-05-2005 04:04:02 9.8 C 80 % 6.52 C
142 31-05-2005 04:16:02 10.1 C 79 % 6.63 C
143 31-05-2005 04:28:02 10.2 C 79 % 6.73 C
144 31-05-2005 04:40:01 10.3 C 79 % 6.82 C
145 31-05-2005 04:52:02 10.1 C 78 % 6.44 C
146 31-05-2005 05:04:02 10 C 80 % 6.71 C
147 31-05-2005 05:16:02 9.7 C 82 % 6.78 C
148 31-05-2005 05:28:02 9.4 C 83 % 6.66 C
149 31-05-2005 05:40:02 9.1 C 83 % 6.37 C
150 31-05-2005 05:52:03 8.8 C 85 % 6.42 C
Sensor: Nr:Datum:Temp:Feuchte:Taupunkt:
Aussen-T/F 151 31-05-2005 06:04:02 8.8 C 86 % 6.59 C
152 31-05-2005 06:16:03 8.8 C 87 % 6.76 C
153 31-05-2005 06:28:03 8.7 C 87 % 6.66 C
154 31-05-2005 06:40:03 8.7 C 88 % 6.83 C
155 31-05-2005 06:52:02 8.7 C 88 % 6.83 C
156 31-05-2005 07:04:02 9 C 88 % 7.12 C
157 31-05-2005 07:16:02 9.3 C 88 % 7.42 C
158 31-05-2005 07:28:02 9.5 C 87 % 7.45 C
159 31-05-2005 07:40:02 9.8 C 85 % 7.4 C
160 31-05-2005 07:52:02 10 C 83 % 7.25 C
161 31-05-2005 08:04:02 10.2 C 82 % 7.27 C
162 31-05-2005 08:16:02 10.6 C 80 % 7.3 C
163 31-05-2005 08:28:02 10.6 C 77 % 6.74 C
164 31-05-2005 08:40:04 10.8 C 76 % 6.75 C
165 31-05-2005 08:52:03 11.2 C 75 % 6.94 C
166 31-05-2005 09:04:02 11.5 C 72 % 6.63 C
167 31-05-2005 09:16:02 11.7 C 72 % 6.83 C
168 31-05-2005 09:28:02 11.9 C 67 % 5.98 C
169 31-05-2005 09:40:02 12.3 C 65 % 5.92 C
170 31-05-2005 09:52:02 12.7 C 63 % 5.85 C
171 31-05-2005 10:04:02 13.2 C 60 % 5.61 C
172 31-05-2005 10:16:02 13.6 C 60 % 5.99 C
173 31-05-2005 10:28:02 14.1 C 58 % 5.97 C
174 31-05-2005 10:40:02 14.2 C 52 % 4.5 C
175 31-05-2005 10:52:01 14.9 C 53 % 5.42 C
Sensor: Nr:Datum:Temp:Feuchte:Taupunkt:
Aussen-T/F 176 31-05-2005 11:04:01 15.8 C 52 % 5.97 C
177 31-05-2005 11:16:01 16.1 C 49 % 5.39 C
178 31-05-2005 11:28:01 16.2 C 46 % 4.58 C
179 31-05-2005 11:40:01 17.8 C 45 % 5.72 C
180 31-05-2005 11:52:02 18.7 C 41 % 5.19 C
181 31-05-2005 12:04:01 17.2 C 41 % 3.85 C
182 31-05-2005 12:16:02 18.3 C 38 % 3.75 C
183 31-05-2005 12:28:02 17.9 C 38 % 3.4 C
184 31-05-2005 12:40:01 17.8 C 38 % 3.31 C
185 31-05-2005 12:52:02 19.1 C 35 % 3.3 C
186 31-05-2005 13:04:01 17.7 C 40 % 3.95 C
187 31-05-2005 13:16:01 17 C 41 % 3.67 C
188 31-05-2005 13:28:01 16.9 C 42 % 3.92 C
189 31-05-2005 13:40:02 17.8 C 40 % 4.03 C
190 31-05-2005 13:52:02 18.2 C 38 % 3.66 C
191 31-05-2005 14:04:02 18.5 C 38 % 3.93 C
192 31-05-2005 14:16:04 18.7 C 37 % 3.73 C
193 31-05-2005 14:28:04 20 C 35 % 4.09 C
194 31-05-2005 14:40:02 20.2 C 33 % 3.43 C
195 31-05-2005 14:52:02 19.5 C 33 % 2.82 C
196 31-05-2005 15:04:01 19 C 35 % 3.21 C
197 31-05-2005 15:16:01 19.3 C 36 % 3.87 C
198 31-05-2005 15:28:01 19.3 C 34 % 3.06 C
199 31-05-2005 15:40:02 20.5 C 32 % 3.26 C
200 31-05-2005 15:52:02 21.2 C 31 % 3.42 C
Sensor: Nr:Datum:Temp:Feuchte:Taupunkt:
Aussen-T/F 201 31-05-2005 16:04:02 20.8 C 31 % 3.07 C
202 31-05-2005 16:16:03 21.3 C 30 % 3.04 C
203 31-05-2005 16:28:03 20.6 C 33 % 3.78 C
204 31-05-2005 16:40:02 20.3 C 31 % 2.64 C
205 31-05-2005 16:52:03 21.4 C 28 % 2.16 C
206 31-05-2005 17:04:02 20.2 C 31 % 2.55 C
207 31-05-2005 17:16:03 21.6 C 29 % 2.82 C
208 31-05-2005 17:28:03 21.8 C 29 % 2.99 C
209 31-05-2005 17:40:02 20.7 C 34 % 4.29 C
210 31-05-2005 17:52:02 19.6 C 34 % 3.33 C
211 31-05-2005 18:04:02 17.5 C 42 % 4.46 C
212 31-05-2005 18:16:02 17.4 C 44 % 5.03 C
213 31-05-2005 18:28:02 17.8 C 42 % 4.73 C
214 31-05-2005 18:40:02 18.9 C 39 % 4.66 C
215 31-05-2005 18:52:02 19.8 C 36 % 4.31 C
216 31-05-2005 19:04:01 20.7 C 36 % 5.11 C
217 31-05-2005 19:16:02 19.5 C 36 % 4.05 C
218 31-05-2005 19:28:02 18 C 41 % 4.57 C
219 31-05-2005 19:40:02 17.8 C 41 % 4.39 C
220 31-05-2005 19:52:02 18.6 C 40 % 4.75 C
221 31-05-2005 20:04:02 18.1 C 40 % 4.3 C
222 31-05-2005 20:16:02 17.7 C 41 % 4.3 C
223 31-05-2005 20:28:02 16.9 C 42 % 3.92 C
224 31-05-2005 20:40:02 16.6 C 49 % 5.85 C
225 31-05-2005 20:52:02 16.6 C 49 % 5.85 C
Sensor: Nr:Datum:Temp:Feuchte:Taupunkt:
Aussen-T/F 226 31-05-2005 21:04:02 16.2 C 51 % 6.06 C
227 31-05-2005 21:16:01 15.6 C 53 % 6.06 C
228 31-05-2005 21:28:01 14.8 C 55 % 5.86 C
229 31-05-2005 21:40:01 14.5 C 56 % 5.84 C
230 31-05-2005 21:52:03 14.1 C 56 % 5.46 C
231 31-05-2005 22:04:02 13.7 C 59 % 5.84 C
232 31-05-2005 22:16:02 13.6 C 61 % 6.23 C
233 31-05-2005 22:28:02 13.6 C 62 % 6.47 C
234 31-05-2005 22:40:02 13.7 C 62 % 6.56 C
235 31-05-2005 22:52:02 13.6 C 63 % 6.7 C
236 31-05-2005 23:04:03 13.4 C 63 % 6.51 C
237 31-05-2005 23:17:02 13.3 C 64 % 6.64 C
238 31-05-2005 23:29:02 13.5 C 65 % 7.06 C
239 31-05-2005 23:41:02 13.4 C 65 % 6.96 C
240 31-05-2005 23:53:02 13.2 C 66 % 7 C
241 01-06-2005 00:05:02 12.8 C 70 % 7.47 C
242 01-06-2005 00:17:02 12.9 C 70 % 7.57 C
243 01-06-2005 00:29:02 12.7 C 71 % 7.58 C
244 01-06-2005 00:41:02 12.6 C 71 % 7.49 C
245 01-06-2005 00:53:02 12.4 C 72 % 7.5 C
246 01-06-2005 01:05:02 12 C 73 % 7.32 C
247 01-06-2005 01:17:03 11.6 C 75 % 7.33 C
248 01-06-2005 01:29:03 11.5 C 76 % 7.42 C
249 01-06-2005 01:41:03 11.3 C 76 % 7.23 C
250 01-06-2005 01:53:03 11.2 C 77 % 7.32 C
Sensor: Nr:Datum:Temp:Feuchte:Taupunkt:
Aussen-T/F 251 01-06-2005 02:05:03 11.1 C 78 % 7.41 C
252 01-06-2005 02:17:03 11.1 C 79 % 7.6 C
253 01-06-2005 02:29:03 10.8 C 80 % 7.49 C
254 01-06-2005 02:41:03 10.5 C 80 % 7.2 C
255 01-06-2005 02:53:03 10.3 C 80 % 7.01 C
256 01-06-2005 03:05:03 10.2 C 81 % 7.09 C
257 01-06-2005 03:17:03 10.3 C 83 % 7.54 C
258 01-06-2005 03:29:03 10.2 C 83 % 7.45 C
259 01-06-2005 03:41:03 10 C 83 % 7.25 C
260 01-06-2005 03:53:03 9.8 C 85 % 7.4 C
261 01-06-2005 04:05:03 9.7 C 85 % 7.3 C
262 01-06-2005 04:17:03 9.6 C 85 % 7.21 C
263 01-06-2005 04:29:03 9.3 C 86 % 7.08 C
264 01-06-2005 04:41:03 9.2 C 86 % 6.98 C
265 01-06-2005 04:53:03 9 C 86 % 6.79 C
266 01-06-2005 05:05:03 9 C 86 % 6.79 C
267 01-06-2005 05:17:04 8.8 C 88 % 6.93 C
268 01-06-2005 05:29:04 8.7 C 88 % 6.83 C
269 01-06-2005 05:41:04 8.7 C 89 % 6.99 C
270 01-06-2005 05:53:04 8.7 C 90 % 7.15 C
271 01-06-2005 06:05:04 8.7 C 90 % 7.15 C
272 01-06-2005 06:17:04 8.8 C 90 % 7.25 C
273 01-06-2005 06:29:04 8.8 C 91 % 7.41 C
274 01-06-2005 06:41:04 8.8 C 91 % 7.41 C
275 01-06-2005 06:53:04 8.9 C 91 % 7.51 C
Sensor: Nr:Datum:Temp:Feuchte:Taupunkt:
Aussen-T/F 276 01-06-2005 07:05:04 8.9 C 90 % 7.35 C
277 01-06-2005 07:17:04 8.9 C 90 % 7.35 C
278 01-06-2005 07:29:04 9 C 89 % 7.29 C
279 01-06-2005 07:41:04 9.3 C 89 % 7.58 C
280 01-06-2005 07:53:04 9.4 C 89 % 7.68 C
281 01-06-2005 08:05:04 9.5 C 88 % 7.61 C
282 01-06-2005 08:17:04 9.8 C 88 % 7.91 C
283 01-06-2005 08:29:04 10.2 C 85 % 7.79 C
284 01-06-2005 08:41:04 10.5 C 82 % 7.56 C
285 01-06-2005 08:53:04 10.9 C 79 % 7.41 C
286 01-06-2005 09:05:05 11.5 C 78 % 7.8 C
287 01-06-2005 09:17:05 12.2 C 75 % 7.91 C
288 01-06-2005 09:29:05 12.8 C 72 % 7.88 C
289 01-06-2005 09:41:05 13.7 C 69 % 8.12 C
290 01-06-2005 09:53:05 14.2 C 65 % 7.72 C
291 01-06-2005 10:05:05 14.9 C 58 % 6.72 C
292 01-06-2005 10:17:02 14.8 C 53 % 5.32 C
293 01-06-2005 10:29:02 15.4 C 54 % 6.15 C
294 01-06-2005 10:41:01 16.2 C 48 % 5.19 C
295 01-06-2005 10:53:02 16.7 C 44 % 4.4 C
296 01-06-2005 11:05:02 16.5 C 40 % 2.87 C
297 01-06-2005 11:17:02 17.3 C 39 % 3.23 C
298 01-06-2005 11:29:02 17.7 C 38 % 3.22 C
299 01-06-2005 11:41:02 18.1 C 36 % 2.81 C
300 01-06-2005 11:53:02 17.7 C 33 % 1.24 C
Sensor: Nr:Datum:Temp:Feuchte:Taupunkt:
Aussen-T/F 301 01-06-2005 12:05:02 18.5 C 31 % 1.07 C
302 01-06-2005 12:17:02 20.3 C 30 % 2.18 C
303 01-06-2005 12:29:02 20.2 C 29 % 1.62 C
304 01-06-2005 12:41:02 20.1 C 25 % -0.52 C
305 01-06-2005 12:53:02 19.1 C 26 % -0.83 C
306 01-06-2005 13:05:01 20.8 C 26 % 0.62 C
307 01-06-2005 13:17:02 19.4 C 26 % -0.57 C
308 01-06-2005 13:29:02 21 C 25 % 0.24 C
309 01-06-2005 13:41:02 22 C 24 % 0.52 C
310 01-06-2005 13:53:02 20.8 C 26 % 0.62 C
311 01-06-2005 14:05:01 21 C 26 % 0.79 C
312 01-06-2005 14:17:01 21 C 27 % 1.31 C
313 01-06-2005 14:29:01 20.4 C 27 % 0.8 C
314 01-06-2005 14:41:02 20.4 C 31 % 2.72 C
315 01-06-2005 14:53:02 21.2 C 26 % 0.95 C
316 01-06-2005 15:05:01 21.4 C 26 % 1.12 C
317 01-06-2005 15:17:01 22.5 C 25 % 1.51 C
318 01-06-2005 15:29:01 22.7 C 24 % 1.11 C
319 01-06-2005 15:41:02 22.3 C 22 % -0.42 C
320 01-06-2005 15:53:02 22.5 C 22 % -0.25 C
321 01-06-2005 16:05:02 21.6 C 25 % 0.75 C
322 01-06-2005 16:17:01 23.5 C 23 % 1.19 C
323 01-06-2005 16:29:01 22.8 C 23 % 0.61 C
324 01-06-2005 16:41:02 22.8 C 23 % 0.61 C
325 01-06-2005 16:53:03 23.8 C 22 % 0.83 C
Sensor: Nr:Datum:Temp:Feuchte:Taupunkt:
Aussen-T/F 326 01-06-2005 17:05:03 24.5 C 21 % 0.76 C
327 01-06-2005 17:17:03 24.7 C 21 % 0.93 C
328 01-06-2005 17:29:03 24.7 C 20 % 0.26 C
329 01-06-2005 17:41:02 24.6 C 21 % 0.85 C
330 01-06-2005 17:53:03 24.3 C 21 % 0.6 C
331 01-06-2005 18:05:03 24.1 C 21 % 0.43 C
332 01-06-2005 18:17:03 23.6 C 23 % 1.28 C
333 01-06-2005 18:29:03 23.1 C 23 % 0.86 C
334 01-06-2005 18:41:03 23 C 22 % 0.16 C
335 01-06-2005 18:53:02 23.1 C 23 % 0.86 C
336 01-06-2005 19:05:02 23.4 C 25 % 2.27 C
337 01-06-2005 19:17:02 22.7 C 25 % 1.68 C
338 01-06-2005 19:29:02 22 C 26 % 1.63 C
339 01-06-2005 19:41:02 21.6 C 29 % 2.82 C
340 01-06-2005 19:53:02 20.5 C 30 % 2.35 C
341 01-06-2005 20:05:02 20 C 31 % 2.38 C
342 01-06-2005 20:17:03 19.5 C 34 % 3.24 C
343 01-06-2005 20:29:03 19.2 C 39 % 4.92 C
344 01-06-2005 20:41:02 18.7 C 40 % 4.84 C
345 01-06-2005 20:53:02 18.1 C 40 % 4.3 C
346 01-06-2005 21:05:01 17.3 C 42 % 4.28 C
347 01-06-2005 21:17:02 17 C 43 % 4.34 C
348 01-06-2005 21:29:02 16.8 C 44 % 4.49 C
349 01-06-2005 21:41:01 16.5 C 45 % 4.54 C
350 01-06-2005 21:53:02 16.4 C 45 % 4.45 C
Sensor: Nr:Datum:Temp:Feuchte:Taupunkt:
Aussen-T/F 351 01-06-2005 22:05:02 16.4 C 45 % 4.45 C
352 01-06-2005 22:17:02 16 C 45 % 4.09 C
353 01-06-2005 22:29:02 15.8 C 47 % 4.52 C
354 01-06-2005 22:41:02 15.6 C 44 % 3.4 C
355 01-06-2005 22:53:01 15.2 C 46 % 3.67 C
356 01-06-2005 23:05:02 15 C 46 % 3.49 C
357 01-06-2005 23:17:02 14.7 C 48 % 3.82 C
358 01-06-2005 23:29:02 14.6 C 48 % 3.73 C
359 01-06-2005 23:41:01 14.3 C 49 % 3.74 C
360 01-06-2005 23:53:01 14 C 50 % 3.75 C
361 02-06-2005 00:05:02 13.7 C 52 % 4.03 C
362 02-06-2005 00:17:03 13.4 C 52 % 3.76 C
363 02-06-2005 00:29:03 13.2 C 54 % 4.11 C
364 02-06-2005 00:41:01 13 C 52 % 3.39 C
365 02-06-2005 00:53:02 12.8 C 55 % 4 C
366 02-06-2005 01:05:02 12.8 C 57 % 4.5 C
367 02-06-2005 01:17:02 12.6 C 58 % 4.57 C
368 02-06-2005 01:29:03 12.6 C 59 % 4.81 C
369 02-06-2005 01:41:02 12.7 C 60 % 5.14 C
370 02-06-2005 01:53:02 12.5 C 62 % 5.43 C
371 02-06-2005 02:05:02 12.2 C 64 % 5.6 C
372 02-06-2005 02:17:02 11.9 C 64 % 5.32 C
373 02-06-2005 02:29:02 11.5 C 64 % 4.94 C
374 02-06-2005 02:41:02 11.4 C 63 % 4.62 C
375 02-06-2005 02:54:04 11.2 C 64 % 4.65 C
Sensor: Nr:Datum:Temp:Feuchte:Taupunkt:
Aussen-T/F 376 02-06-2005 03:06:04 11.1 C 67 % 5.21 C
377 02-06-2005 03:18:04 11 C 68 % 5.33 C
378 02-06-2005 03:30:04 11 C 69 % 5.54 C
379 02-06-2005 03:42:03 11.1 C 71 % 6.05 C
380 02-06-2005 03:54:03 11.1 C 71 % 6.05 C
381 02-06-2005 04:06:02 11.4 C 71 % 6.34 C
382 02-06-2005 04:18:02 11.4 C 71 % 6.34 C
383 02-06-2005 04:30:03 11.4 C 72 % 6.54 C
384 02-06-2005 04:42:02 11.5 C 72 % 6.63 C
385 02-06-2005 04:54:02 11.3 C 72 % 6.44 C
386 02-06-2005 05:06:01 10.9 C 73 % 6.26 C
387 02-06-2005 05:18:01 10.5 C 74 % 6.07 C
388 02-06-2005 05:30:01 10.4 C 74 % 5.97 C
389 02-06-2005 05:42:02 10.1 C 76 % 6.07 C
390 02-06-2005 05:54:02 10.2 C 77 % 6.35 C
391 02-06-2005 06:06:03 10.4 C 75 % 6.17 C
392 02-06-2005 06:18:03 10.5 C 78 % 6.83 C
393 02-06-2005 06:30:03 10.7 C 78 % 7.03 C
394 02-06-2005 06:42:02 11.1 C 76 % 7.04 C
395 02-06-2005 06:54:02 11.2 C 75 % 6.94 C
396 02-06-2005 07:06:01 11.3 C 75 % 7.04 C
397 02-06-2005 07:18:01 11.5 C 75 % 7.23 C
398 02-06-2005 07:30:01 11.8 C 76 % 7.71 C
399 02-06-2005 07:42:03 12.3 C 74 % 7.8 C
400 02-06-2005 07:54:02 13.1 C 68 % 7.34 C
Sensor: Nr:Datum:Temp:Feuchte:Taupunkt:
Aussen-T/F 401 02-06-2005 08:06:02 13.3 C 67 % 7.31 C
402 02-06-2005 08:18:01 13.6 C 63 % 6.7 C
403 02-06-2005 08:30:01 13.8 C 63 % 6.89 C
404 02-06-2005 08:42:01 13.9 C 63 % 6.98 C
405 02-06-2005 08:54:01 14.2 C 65 % 7.72 C
406 02-06-2005 09:06:02 14.6 C 65 % 8.1 C
407 02-06-2005 09:18:01 14.8 C 63 % 7.83 C
408 02-06-2005 09:30:01 15.1 C 60 % 7.4 C
409 02-06-2005 09:42:02 15.4 C 60 % 7.68 C
410 02-06-2005 09:54:02 15.8 C 59 % 7.81 C
411 02-06-2005 10:06:02 16.1 C 56 % 7.33 C
412 02-06-2005 10:18:02 16.9 C 55 % 7.81 C
413 02-06-2005 10:30:02 17.8 C 50 % 7.25 C
414 02-06-2005 10:42:02 18.3 C 48 % 7.11 C
415 02-06-2005 10:54:02 19 C 47 % 7.44 C
416 02-06-2005 11:06:02 19.4 C 46 % 7.49 C
417 02-06-2005 11:18:02 20.1 C 46 % 8.13 C
418 02-06-2005 11:30:03 20.8 C 46 % 8.77 C
419 02-06-2005 11:42:02 20.8 C 45 % 8.44 C
420 02-06-2005 11:54:02 20.7 C 46 % 8.67 C
421 02-06-2005 12:06:02 21.6 C 44 % 8.83 C
422 02-06-2005 12:18:02 22.1 C 42 % 8.6 C
423 02-06-2005 12:30:02 22.3 C 42 % 8.78 C
424 02-06-2005 12:42:02 23.3 C 39 % 8.58 C
425 02-06-2005 12:54:02 22.8 C 42 % 9.23 C
Sensor: Nr:Datum:Temp:Feuchte:Taupunkt:
Aussen-T/F 426 02-06-2005 13:06:02 23.4 C 39 % 8.67 C
427 02-06-2005 13:18:01 23.9 C 39 % 9.11 C
428 02-06-2005 13:30:01 22.9 C 41 % 8.96 C
429 02-06-2005 13:42:02 23.3 C 42 % 9.68 C
430 02-06-2005 13:54:02 23.3 C 40 % 8.95 C
431 02-06-2005 14:06:02 23.3 C 42 % 9.68 C
432 02-06-2005 14:18:02 22.8 C 41 % 8.87 C
433 02-06-2005 14:30:02 22.4 C 42 % 8.87 C
434 02-06-2005 14:42:02 22.9 C 42 % 9.32 C
435 02-06-2005 14:54:02 23.8 C 40 % 9.4 C
436 02-06-2005 15:06:01 23.1 C 40 % 8.77 C
437 02-06-2005 15:18:01 24 C 38 % 8.82 C
438 02-06-2005 15:30:01 23.9 C 40 % 9.49 C
439 02-06-2005 15:42:02 24.2 C 38 % 8.99 C
440 02-06-2005 15:54:02 24.1 C 37 % 8.51 C
441 02-06-2005 16:06:03 24.5 C 37 % 8.86 C
442 02-06-2005 16:18:02 25 C 36 % 8.9 C
443 02-06-2005 16:30:02 25 C 35 % 8.48 C
444 02-06-2005 16:42:02 25.4 C 34 % 8.41 C
445 02-06-2005 16:54:03 26.2 C 33 % 8.67 C
446 02-06-2005 17:06:05 26.6 C 32 % 8.56 C
447 02-06-2005 17:18:04 25.8 C 33 % 8.32 C
448 02-06-2005 17:30:04 25.3 C 34 % 8.32 C
449 02-06-2005 17:42:03 25.2 C 34 % 8.23 C
450 02-06-2005 17:54:02 25.5 C 35 % 8.92 C
Sensor: Nr:Datum:Temp:Feuchte:Taupunkt:
Aussen-T/F 451 02-06-2005 18:06:02 25.4 C 34 % 8.41 C
452 02-06-2005 18:18:01 24.7 C 36 % 8.64 C
453 02-06-2005 18:30:01 25.2 C 35 % 8.66 C
454 02-06-2005 18:42:02 25.3 C 36 % 9.16 C
455 02-06-2005 18:54:02 24.8 C 36 % 8.72 C
456 02-06-2005 19:06:02 24.7 C 37 % 9.04 C
457 02-06-2005 19:18:02 24.6 C 36 % 8.55 C
458 02-06-2005 19:30:02 24.2 C 37 % 8.6 C
459 02-06-2005 19:42:02 24.1 C 38 % 8.9 C
460 02-06-2005 19:54:02 24.1 C 39 % 9.29 C
461 02-06-2005 20:06:02 23.9 C 41 % 9.85 C
462 02-06-2005 20:18:02 24 C 41 % 9.94 C
463 02-06-2005 20:30:02 23.7 C 42 % 10.03 C
464 02-06-2005 20:42:03 23.5 C 44 % 10.55 C
465 02-06-2005 20:54:02 22.6 C 46 % 10.4 C
466 02-06-2005 21:06:02 22 C 49 % 10.8 C
467 02-06-2005 21:18:03 21.3 C 50 % 10.46 C
468 02-06-2005 21:30:03 20.8 C 51 % 10.3 C
469 02-06-2005 21:42:02 20.3 C 54 % 10.69 C
470 02-06-2005 21:54:02 19.7 C 54 % 10.14 C
471 02-06-2005 22:06:01 19.4 C 57 % 10.67 C
472 02-06-2005 22:18:02 19.3 C 59 % 11.09 C
473 02-06-2005 22:30:02 19.2 C 59 % 11 C
474 02-06-2005 22:42:01 18.8 C 60 % 10.88 C
475 02-06-2005 22:54:02 18.5 C 62 % 11.09 C
Sensor: Nr:Datum:Temp:Feuchte:Taupunkt:
Aussen-T/F 476 02-06-2005 23:06:02 18.2 C 62 % 10.81 C
477 02-06-2005 23:18:02 18 C 63 % 10.86 C
478 02-06-2005 23:30:02 17.8 C 64 % 10.9 C
479 02-06-2005 23:42:02 17.5 C 65 % 10.85 C
480 02-06-2005 23:54:02 17.3 C 66 % 10.89 C
481 03-06-2005 00:06:02 17.2 C 66 % 10.8 C
482 03-06-2005 00:18:03 17.1 C 67 % 10.93 C
483 03-06-2005 00:30:03 16.7 C 69 % 10.99 C
484 03-06-2005 00:42:02 16.6 C 69 % 10.89 C
485 03-06-2005 00:54:02 16.3 C 70 % 10.82 C
486 03-06-2005 01:06:02 16.1 C 71 % 10.84 C
487 03-06-2005 01:18:02 15.9 C 73 % 11.07 C
488 03-06-2005 01:30:03 15.8 C 74 % 11.18 C
489 03-06-2005 01:42:02 15.6 C 74 % 10.99 C
490 03-06-2005 01:54:02 15.4 C 74 % 10.79 C
491 03-06-2005 02:06:02 15.2 C 75 % 10.8 C
492 03-06-2005 02:18:01 15.2 C 76 % 11 C
493 03-06-2005 02:30:01 15.2 C 76 % 11 C
494 03-06-2005 02:42:01 15 C 77 % 11 C
495 03-06-2005 02:55:04 14.9 C 78 % 11.1 C
496 03-06-2005 03:07:04 14.7 C 78 % 10.91 C
497 03-06-2005 03:19:03 14.7 C 78 % 10.91 C
498 03-06-2005 03:31:02 14.4 C 79 % 10.81 C
499 03-06-2005 03:43:02 14.3 C 79 % 10.71 C
500 03-06-2005 03:55:02 14.2 C 80 % 10.8 C
Sensor: Nr:Datum:Temp:Feuchte:Taupunkt:
Aussen-T/F 501 03-06-2005 04:07:02 14 C 79 % 10.42 C
502 03-06-2005 04:19:02 13.9 C 81 % 10.7 C
503 03-06-2005 04:31:01 13.8 C 82 % 10.78 C
504 03-06-2005 04:43:01 13.7 C 82 % 10.69 C
505 03-06-2005 04:55:02 13.6 C 82 % 10.59 C
506 03-06-2005 05:07:02 13.4 C 82 % 10.39 C
507 03-06-2005 05:19:02 13.3 C 83 % 10.48 C
508 03-06-2005 05:31:02 13.2 C 83 % 10.38 C
509 03-06-2005 05:43:02 13.2 C 83 % 10.38 C
510 03-06-2005 05:55:02 13.2 C 83 % 10.38 C
511 03-06-2005 06:07:02 13.2 C 83 % 10.38 C
512 03-06-2005 06:19:02 13.2 C 83 % 10.38 C
513 03-06-2005 06:31:02 13.3 C 84 % 10.66 C
514 03-06-2005 06:43:02 13.4 C 84 % 10.75 C
515 03-06-2005 06:55:02 13.4 C 84 % 10.75 C
516 03-06-2005 07:07:01 13.7 C 84 % 11.05 C
517 03-06-2005 07:19:01 13.8 C 83 % 10.97 C
518 03-06-2005 07:31:02 13.9 C 83 % 11.06 C
519 03-06-2005 07:43:02 14 C 82 % 10.98 C
520 03-06-2005 07:55:03 14.1 C 82 % 11.08 C
521 03-06-2005 08:07:02 14.4 C 82 % 11.37 C
522 03-06-2005 08:19:02 14.6 C 81 % 11.38 C
523 03-06-2005 08:31:03 15 C 79 % 11.39 C
524 03-06-2005 08:43:03 15.3 C 79 % 11.68 C
525 03-06-2005 08:55:02 16 C 78 % 12.17 C
Sensor: Nr:Datum:Temp:Feuchte:Taupunkt:
Aussen-T/F 526 03-06-2005 09:07:02 16.8 C 76 % 12.55 C
527 03-06-2005 09:19:02 17.5 C 73 % 12.61 C
528 03-06-2005 09:31:02 18.3 C 70 % 12.74 C
529 03-06-2005 09:43:03 19.2 C 68 % 13.15 C
530 03-06-2005 09:55:02 19.9 C 65 % 13.13 C
531 03-06-2005 10:07:01 20.8 C 62 % 13.26 C
532 03-06-2005 10:19:01 21.6 C 59 % 13.25 C
533 03-06-2005 10:31:01 22.4 C 58 % 13.73 C
534 03-06-2005 10:43:01 23.1 C 57 % 14.12 C
535 03-06-2005 10:55:01 23.7 C 55 % 14.13 C
536 03-06-2005 11:07:01 24.4 C 51 % 13.61 C
537 03-06-2005 11:19:02 24.8 C 45 % 12.06 C
538 03-06-2005 11:31:01 25.8 C 43 % 12.28 C
539 03-06-2005 11:43:01 26.3 C 43 % 12.73 C
540 03-06-2005 11:55:01 26.3 C 38 % 10.86 C
541 03-06-2005 12:07:01 27 C 35 % 10.24 C
542 03-06-2005 12:19:01 28 C 35 % 11.12 C
543 03-06-2005 12:31:01 28.9 C 29 % 9.09 C
544 03-06-2005 12:43:01 30 C 30 % 10.54 C
545 03-06-2005 12:55:01 29.7 C 25 % 7.58 C
546 03-06-2005 13:07:02 29.1 C 23 % 5.87 C
547 03-06-2005 13:19:01 29.4 C 23 % 6.12 C
548 03-06-2005 13:31:01 30.1 C 25 % 7.92 C
549 03-06-2005 13:43:01 31 C 23 % 7.45 C
550 03-06-2005 13:55:02 31 C 22 % 6.8 C
Sensor: Nr:Datum:Temp:Feuchte:Taupunkt:
Aussen-T/F 551 03-06-2005 14:07:01 30.1 C 23 % 6.7 C
552 03-06-2005 14:19:02 30.4 C 25 % 8.17 C
553 03-06-2005 14:31:01 30.3 C 24 % 7.49 C
554 03-06-2005 14:43:02 30.3 C 24 % 7.49 C
555 03-06-2005 14:55:03 30.7 C 25 % 8.42 C
556 03-06-2005 15:07:04 29.8 C 26 % 8.24 C
557 03-06-2005 15:19:04 30.3 C 25 % 8.09 C
558 03-06-2005 15:31:03 31.1 C 22 % 6.88 C
559 03-06-2005 15:43:03 30.7 C 22 % 6.55 C
560 03-06-2005 15:55:02 30.7 C 24 % 7.82 C
561 03-06-2005 16:07:01 30.1 C 25 % 7.92 C
562 03-06-2005 16:19:02 31 C 23 % 7.45 C
563 03-06-2005 16:31:02 31.2 C 21 % 6.29 C
564 03-06-2005 16:43:02 31.2 C 21 % 6.29 C
565 03-06-2005 16:55:01 31.3 C 21 % 6.37 C
566 03-06-2005 17:07:02 31.3 C 21 % 6.37 C
567 03-06-2005 17:19:02 31.2 C 22 % 6.97 C
568 03-06-2005 17:31:02 31.2 C 23 % 7.62 C
569 03-06-2005 17:43:02 30.7 C 23 % 7.2 C
570 03-06-2005 17:55:02 30.8 C 25 % 8.51 C
571 03-06-2005 18:07:02 30.6 C 23 % 7.12 C
572 03-06-2005 18:19:02 30.1 C 26 % 8.5 C
573 03-06-2005 18:32:40 29.9 C 28 % 9.42 C
574 03-06-2005 18:44:40 28.5 C 33 % 10.67 C
575 03-06-2005 18:56:40 27.8 C 34 % 10.51 C
Sensor: Nr:Datum:Temp:Feuchte:Taupunkt:
Aussen-T/F 576 03-06-2005 19:08:41 26.5 C 41 % 12.18 C
577 03-06-2005 19:20:41 23.9 C 47 % 11.91 C
578 03-06-2005 19:32:41 23.4 C 45 % 10.8 C
579 03-06-2005 19:44:41 23 C 46 % 10.76 C
580 03-06-2005 19:56:41 23 C 44 % 10.1 C
581 03-06-2005 20:08:41 20.8 C 63 % 13.5 C
582 03-06-2005 20:20:41 19.1 C 68 % 13.06 C
583 03-06-2005 20:32:41 18.1 C 76 % 13.81 C
584 03-06-2005 20:44:41 17.8 C 83 % 14.88 C
585 03-06-2005 20:56:41 17.6 C 84 % 14.87 C
586 03-06-2005 21:08:41 18.3 C 86 % 15.92 C
587 03-06-2005 21:20:41 18.3 C 83 % 15.36 C
588 03-06-2005 21:32:41 18 C 80 % 14.5 C
589 03-06-2005 21:44:41 18 C 80 % 14.5 C
590 03-06-2005 21:56:41 17.7 C 81 % 14.4 C
591 03-06-2005 22:08:41 17.5 C 81 % 14.2 C
592 03-06-2005 22:20:41 17.3 C 81 % 14.01 C
593 03-06-2005 22:32:41 17.2 C 81 % 13.91 C
594 03-06-2005 22:44:41 17.2 C 81 % 13.91 C
595 03-06-2005 22:56:41 17.2 C 81 % 13.91 C
596 03-06-2005 23:08:42 17.2 C 80 % 13.72 C
597 03-06-2005 23:20:42 17.2 C 78 % 13.33 C
598 03-06-2005 23:32:42 17.3 C 77 % 13.23 C
599 03-06-2005 23:44:42 17.3 C 76 % 13.03 C
600 03-06-2005 23:56:42 17.2 C 76 % 12.94 C
Sensor: Nr:Datum:Temp:Feuchte:Taupunkt:
Aussen-T/F 601 04-06-2005 00:08:42 17.5 C 74 % 12.82 C
602 04-06-2005 00:20:42 17.5 C 74 % 12.82 C
603 04-06-2005 00:32:42 17.7 C 74 % 13.01 C
604 04-06-2005 00:44:42 18.1 C 72 % 12.98 C
605 04-06-2005 00:56:42 17.3 C 78 % 13.43 C
606 04-06-2005 01:08:42 16.8 C 79 % 13.14 C
607 04-06-2005 01:20:42 16.6 C 78 % 12.75 C
608 04-06-2005 01:32:42 16.7 C 79 % 13.04 C
609 04-06-2005 01:44:42 16.7 C 78 % 12.85 C
610 04-06-2005 01:56:42 16.8 C 80 % 13.33 C
611 04-06-2005 02:08:42 16.8 C 79 % 13.14 C
612 04-06-2005 02:20:42 16.8 C 77 % 12.75 C
613 04-06-2005 02:32:42 16.8 C 76 % 12.55 C
614 04-06-2005 02:44:42 16.6 C 76 % 12.36 C
615 04-06-2005 02:56:42 16.3 C 77 % 12.26 C
616 04-06-2005 03:08:42 16.1 C 77 % 12.07 C
617 04-06-2005 03:20:43 16.2 C 77 % 12.17 C
618 04-06-2005 03:32:43 16.2 C 74 % 11.56 C
619 04-06-2005 03:44:43 16.2 C 73 % 11.36 C
620 04-06-2005 03:56:43 16.3 C 73 % 11.46 C
621 04-06-2005 04:08:43 16.2 C 72 % 11.15 C
622 04-06-2005 04:20:43 16.3 C 71 % 11.04 C
623 04-06-2005 04:32:43 16.2 C 73 % 11.36 C
624 04-06-2005 04:44:43 16.2 C 70 % 10.73 C
625 04-06-2005 04:56:43 16.1 C 67 % 9.98 C
Sensor: Nr:Datum:Temp:Feuchte:Taupunkt:
Aussen-T/F 626 04-06-2005 05:08:43 16 C 64 % 9.2 C
627 04-06-2005 05:20:43 16 C 63 % 8.97 C
628 04-06-2005 05:32:43 15.8 C 67 % 9.69 C
629 04-06-2005 05:44:43 15.3 C 66 % 8.99 C
630 04-06-2005 05:56:43 15.3 C 68 % 9.43 C
631 04-06-2005 06:08:43 15.1 C 68 % 9.24 C
632 04-06-2005 06:20:43 14.8 C 66 % 8.52 C
633 04-06-2005 06:32:43 14.6 C 65 % 8.1 C
634 04-06-2005 06:44:02 15 C 63 % 8.02 C
635 04-06-2005 06:56:02 14.9 C 65 % 8.39 C
636 04-06-2005 07:08:02 14.8 C 67 % 8.74 C
637 04-06-2005 07:20:02 14 C 66 % 7.76 C
638 04-06-2005 07:32:02 14.6 C 66 % 8.33 C
639 04-06-2005 07:44:02 14.9 C 64 % 8.16 C
640 04-06-2005 07:56:03 14.7 C 64 % 7.97 C
641 04-06-2005 08:08:03 14.6 C 64 % 7.87 C
642 04-06-2005 08:20:02 14.6 C 63 % 7.64 C
643 04-06-2005 08:32:03 14.7 C 66 % 8.42 C
644 04-06-2005 08:44:03 15.2 C 60 % 7.5 C
645 04-06-2005 08:56:02 14.7 C 62 % 7.5 C
646 04-06-2005 09:08:03 14.9 C 60 % 7.21 C
647 04-06-2005 09:20:02 15 C 56 % 6.3 C
648 04-06-2005 09:32:06 15.2 C 54 % 5.96 C
649 04-06-2005 09:44:06 15.5 C 56 % 6.77 C
650 04-06-2005 09:56:02 15.6 C 54 % 6.34 C
Sensor: Nr:Datum:Temp:Feuchte:Taupunkt:
Aussen-T/F 651 04-06-2005 10:08:02 15.4 C 52 % 5.61 C
652 04-06-2005 10:20:03 15.8 C 51 % 5.69 C
653 04-06-2005 10:32:02 16 C 53 % 6.44 C
654 04-06-2005 10:44:03 15.9 C 53 % 6.34 C
655 04-06-2005 10:56:02 16.5 C 46 % 4.85 C
656 04-06-2005 11:08:02 16.6 C 48 % 5.56 C
657 04-06-2005 11:20:02 17.2 C 44 % 4.85 C
658 04-06-2005 11:32:01 17.4 C 42 % 4.37 C
659 04-06-2005 11:44:01 17.8 C 43 % 5.07 C
660 04-06-2005 11:56:02 18.1 C 44 % 5.67 C
661 04-06-2005 12:08:02 17.7 C 45 % 5.63 C
662 04-06-2005 12:20:01 18.1 C 43 % 5.34 C
663 04-06-2005 12:32:02 18.8 C 41 % 5.28 C
664 04-06-2005 12:44:02 19.2 C 41 % 5.64 C
665 04-06-2005 12:56:01 18.2 C 43 % 5.43 C
666 04-06-2005 13:08:01 17.5 C 45 % 5.45 C
667 04-06-2005 13:20:01 17.5 C 45 % 5.45 C
668 04-06-2005 13:32:02 17.9 C 44 % 5.49 C
669 04-06-2005 13:44:02 18.5 C 43 % 5.7 C
670 04-06-2005 13:56:03 18 C 42 % 4.91 C
671 04-06-2005 14:08:04 19 C 41 % 5.46 C
672 04-06-2005 14:20:03 19.5 C 40 % 5.56 C
673 04-06-2005 14:32:02 19.7 C 40 % 5.73 C
674 04-06-2005 14:44:03 19.1 C 43 % 6.24 C
675 04-06-2005 14:56:02 19.6 C 41 % 6 C
Sensor: Nr:Datum:Temp:Feuchte:Taupunkt:
Aussen-T/F 676 04-06-2005 15:08:02 20.1 C 40 % 6.09 C
677 04-06-2005 15:20:02 19.7 C 39 % 5.37 C
678 04-06-2005 15:32:03 20.1 C 39 % 5.73 C
679 04-06-2005 15:44:03 19.8 C 39 % 5.46 C
680 04-06-2005 15:56:03 19.9 C 39 % 5.55 C
681 04-06-2005 16:08:02 20.3 C 39 % 5.9 C
682 04-06-2005 16:20:03 19.5 C 41 % 5.91 C
683 04-06-2005 16:32:03 18.9 C 42 % 5.72 C
684 04-06-2005 16:44:03 18.5 C 42 % 5.36 C
685 04-06-2005 16:56:02 17 C 55 % 7.9 C
686 04-06-2005 17:08:03 16.8 C 61 % 9.24 C
687 04-06-2005 17:20:03 17.9 C 56 % 9.01 C
688 04-06-2005 17:32:03 19.4 C 49 % 8.42 C
689 04-06-2005 17:44:03 19.9 C 47 % 8.26 C
690 04-06-2005 17:56:03 18.5 C 47 % 6.99 C
691 04-06-2005 18:08:02 17.8 C 53 % 8.1 C
692 04-06-2005 18:20:02 16.8 C 62 % 9.49 C
693 04-06-2005 18:32:03 18.3 C 55 % 9.11 C
694 04-06-2005 18:44:03 19.3 C 51 % 8.92 C
695 04-06-2005 18:56:02 19.7 C 47 % 8.08 C
696 04-06-2005 19:08:02 18.3 C 49 % 7.41 C
697 04-06-2005 19:20:02 17.5 C 52 % 7.54 C
698 04-06-2005 19:32:02 14.7 C 74 % 10.12 C
699 04-06-2005 19:44:02 14.2 C 79 % 10.61 C
700 04-06-2005 19:56:03 14.4 C 77 % 10.42 C
Sensor: Nr:Datum:Temp:Feuchte:Taupunkt:
Aussen-T/F 701 04-06-2005 20:08:02 14.3 C 73 % 9.53 C
702 04-06-2005 20:20:03 14.3 C 73 % 9.53 C
703 04-06-2005 20:32:02 14.5 C 71 % 9.31 C
704 04-06-2005 20:44:02 14.8 C 71 % 9.6 C
705 04-06-2005 20:56:01 14.5 C 73 % 9.72 C
706 04-06-2005 21:08:01 14.2 C 73 % 9.43 C
707 04-06-2005 21:20:01 14.3 C 74 % 9.73 C
708 04-06-2005 21:32:00 14.3 C 74 % 9.73 C
709 04-06-2005 21:44:00 14.3 C 74 % 9.73 C
710 04-06-2005 21:56:02 14.4 C 74 % 9.83 C
711 04-06-2005 22:08:02 14.4 C 74 % 9.83 C
712 04-06-2005 22:20:01 14.1 C 78 % 10.33 C
713 04-06-2005 22:32:01 13.7 C 81 % 10.5 C
714 04-06-2005 22:44:01 13.9 C 78 % 10.13 C
715 04-06-2005 22:56:02 13.8 C 75 % 9.45 C
716 04-06-2005 23:08:03 14.1 C 71 % 8.93 C
717 04-06-2005 23:20:02 14.1 C 72 % 9.13 C
718 04-06-2005 23:32:02 13.9 C 73 % 9.15 C
719 04-06-2005 23:44:02 13.7 C 74 % 9.15 C
720 04-06-2005 23:56:02 13.5 C 75 % 9.16 C
721 05-06-2005 00:08:01 13.4 C 75 % 9.06 C
722 05-06-2005 00:20:02 13.4 C 75 % 9.06 C
723 05-06-2005 00:32:01 13 C 75 % 8.68 C
724 05-06-2005 00:44:01 12.8 C 77 % 8.87 C
725 05-06-2005 00:56:02 12.6 C 77 % 8.68 C
Sensor: Nr:Datum:Temp:Feuchte:Taupunkt:
Aussen-T/F 726 05-06-2005 01:08:02 12.4 C 78 % 8.68 C
727 05-06-2005 01:20:02 12.4 C 77 % 8.49 C
728 05-06-2005 01:32:02 12.4 C 77 % 8.49 C
729 05-06-2005 01:44:02 12.3 C 76 % 8.2 C
730 05-06-2005 01:56:02 12.2 C 76 % 8.1 C
731 05-06-2005 02:08:02 12.4 C 75 % 8.1 C
732 05-06-2005 02:20:02 12.3 C 74 % 7.8 C
733 05-06-2005 02:32:01 12.2 C 74 % 7.71 C
734 05-06-2005 02:44:01 12.2 C 74 % 7.71 C
735 05-06-2005 02:57:03 12.1 C 75 % 7.81 C
736 05-06-2005 03:09:03 12 C 75 % 7.71 C
737 05-06-2005 03:21:03 12.1 C 74 % 7.61 C
738 05-06-2005 03:33:03 12.2 C 73 % 7.51 C
739 05-06-2005 03:45:03 12.2 C 72 % 7.31 C
740 05-06-2005 03:57:03 12.3 C 71 % 7.2 C
741 05-06-2005 04:09:03 12.2 C 71 % 7.1 C
742 05-06-2005 04:21:03 12.1 C 71 % 7.01 C
743 05-06-2005 04:33:02 12.1 C 71 % 7.01 C
744 05-06-2005 04:45:02 12 C 71 % 6.91 C
745 05-06-2005 04:57:02 12 C 70 % 6.71 C
746 05-06-2005 05:09:02 12 C 71 % 6.91 C
747 05-06-2005 05:21:02 12 C 70 % 6.71 C
748 05-06-2005 05:33:02 12 C 70 % 6.71 C
749 05-06-2005 05:45:02 12 C 69 % 6.5 C
750 05-06-2005 05:57:02 12 C 68 % 6.29 C
Sensor: Nr:Datum:Temp:Feuchte:Taupunkt:
Aussen-T/F 751 05-06-2005 06:09:02 12 C 69 % 6.5 C
752 05-06-2005 06:21:02 12 C 69 % 6.5 C
753 05-06-2005 06:33:02 12 C 68 % 6.29 C
754 05-06-2005 06:45:02 12 C 68 % 6.29 C
755 05-06-2005 06:57:02 12.1 C 67 % 6.17 C
756 05-06-2005 07:09:01 12.2 C 67 % 6.26 C
757 05-06-2005 07:21:01 12.2 C 67 % 6.26 C
758 05-06-2005 07:33:02 12.3 C 67 % 6.36 C
759 05-06-2005 07:45:02 12.5 C 67 % 6.55 C
760 05-06-2005 07:57:02 12.8 C 67 % 6.83 C
761 05-06-2005 08:09:02 13 C 66 % 6.8 C
762 05-06-2005 08:21:01 13.1 C 65 % 6.68 C
763 05-06-2005 08:33:02 13.3 C 65 % 6.87 C
764 05-06-2005 08:45:01 13.4 C 65 % 6.96 C
765 05-06-2005 08:57:01 13.5 C 64 % 6.83 C
766 05-06-2005 09:09:01 13.6 C 66 % 7.38 C
767 05-06-2005 09:21:01 13.7 C 68 % 7.91 C
768 05-06-2005 09:33:02 14.4 C 65 % 7.91 C
769 05-06-2005 09:45:02 14.8 C 64 % 8.06 C
770 05-06-2005 09:57:02 14.7 C 63 % 7.74 C
771 05-06-2005 10:09:02 14.9 C 62 % 7.69 C
772 05-06-2005 10:21:02 14.8 C 61 % 7.36 C
773 05-06-2005 10:33:02 15 C 61 % 7.55 C
774 05-06-2005 10:45:02 15.5 C 59 % 7.53 C
775 05-06-2005 10:57:02 16.1 C 57 % 7.59 C
Sensor: Nr:Datum:Temp:Feuchte:Taupunkt:
Aussen-T/F 776 05-06-2005 11:09:02 16 C 56 % 7.24 C
777 05-06-2005 11:21:01 15.8 C 58 % 7.56 C
778 05-06-2005 11:33:04 15.9 C 59 % 7.91 C
779 05-06-2005 11:45:02 16.6 C 55 % 7.53 C
780 05-06-2005 11:57:02 16.3 C 55 % 7.25 C
781 05-06-2005 12:09:02 16.9 C 53 % 7.27 C
782 05-06-2005 12:21:02 16.8 C 53 % 7.18 C
783 05-06-2005 12:33:02 17.1 C 50 % 6.6 C
784 05-06-2005 12:45:02 17 C 52 % 7.08 C
785 05-06-2005 12:57:02 16.9 C 52 % 6.99 C
786 05-06-2005 13:09:02 16.9 C 52 % 6.99 C
787 05-06-2005 13:21:02 17 C 47 % 5.62 C
788 05-06-2005 13:33:02 17.2 C 46 % 5.49 C
789 05-06-2005 13:45:01 17.4 C 47 % 5.98 C
790 05-06-2005 13:57:01 17.8 C 46 % 6.04 C
791 05-06-2005 14:09:02 17.7 C 47 % 6.26 C
792 05-06-2005 14:21:02 17.3 C 47 % 5.89 C
793 05-06-2005 14:33:01 17.2 C 48 % 6.11 C
794 05-06-2005 14:45:02 17.9 C 46 % 6.13 C
795 05-06-2005 14:57:02 19 C 43 % 6.15 C
796 05-06-2005 15:09:02 19.3 C 43 % 6.42 C
797 05-06-2005 15:21:02 19.6 C 41 % 6 C
798 05-06-2005 15:33:02 19.7 C 41 % 6.09 C
799 05-06-2005 15:45:01 18.4 C 45 % 6.26 C
800 05-06-2005 15:57:01 18.1 C 46 % 6.31 C
Sensor: Nr:Datum:Temp:Feuchte:Taupunkt:
Aussen-T/F 801 05-06-2005 16:09:02 18 C 44 % 5.58 C
802 05-06-2005 16:21:02 18 C 43 % 5.25 C
803 05-06-2005 16:33:01 18 C 42 % 4.91 C
804 05-06-2005 16:45:02 18.2 C 43 % 5.43 C
805 05-06-2005 16:57:02 17.8 C 45 % 5.72 C
806 05-06-2005 17:09:02 17.4 C 46 % 5.67 C
807 05-06-2005 17:21:02 16.6 C 57 % 8.06 C
808 05-06-2005 17:33:02 16.7 C 53 % 7.08 C
809 05-06-2005 17:45:02 16.9 C 49 % 6.13 C
810 05-06-2005 17:57:03 17 C 48 % 5.92 C
811 05-06-2005 18:09:02 17.1 C 49 % 6.31 C
812 05-06-2005 18:21:01 17.1 C 50 % 6.6 C
813 05-06-2005 18:33:01 17.1 C 50 % 6.6 C
814 05-06-2005 18:45:02 17 C 51 % 6.8 C
815 05-06-2005 18:57:02 16.8 C 52 % 6.9 C
816 05-06-2005 19:09:02 16.6 C 53 % 6.99 C
817 05-06-2005 19:21:02 16.5 C 53 % 6.9 C
818 05-06-2005 19:33:03 16.5 C 54 % 7.17 C
819 05-06-2005 19:45:01 16.2 C 54 % 6.89 C
820 05-06-2005 19:57:01 16 C 56 % 7.24 C
821 05-06-2005 20:09:02 16 C 57 % 7.49 C
822 05-06-2005 20:21:03 15.8 C 58 % 7.56 C
823 05-06-2005 20:33:02 15.6 C 59 % 7.62 C
824 05-06-2005 20:45:01 15.4 C 59 % 7.44 C
825 05-06-2005 20:57:01 15.2 C 60 % 7.5 C
Sensor: Nr:Datum:Temp:Feuchte:Taupunkt:
Aussen-T/F 826 05-06-2005 21:09:01 15 C 62 % 7.79 C
827 05-06-2005 21:21:02 14.9 C 63 % 7.93 C
828 05-06-2005 21:33:02 14.6 C 64 % 7.87 C
829 05-06-2005 21:45:02 14.5 C 65 % 8.01 C
830 05-06-2005 21:57:02 14.5 C 65 % 8.01 C
831 05-06-2005 22:09:02 14.5 C 65 % 8.01 C
832 05-06-2005 22:21:02 14.5 C 65 % 8.01 C
833 05-06-2005 22:33:02 14.4 C 66 % 8.14 C
834 05-06-2005 22:45:02 14.4 C 66 % 8.14 C
835 05-06-2005 22:57:02 14.3 C 67 % 8.26 C
836 05-06-2005 23:09:02 14.2 C 69 % 8.6 C
837 05-06-2005 23:21:02 14 C 70 % 8.62 C
838 05-06-2005 23:33:03 14 C 69 % 8.41 C
839 05-06-2005 23:45:02 14 C 68 % 8.19 C
840 05-06-2005 23:57:02 14 C 68 % 8.19 C

Legende:
   Min
   Max


Maximal/Minimal-Werte vom 30.05.2005 - 05.06.2005

Sensor Min Max Avg
Temp
(Aussen-T/F)
8.7 °C
31-05-2005  06:28:03
31.3 °C
03-06-2005  16:55:01
16.52 °C
Feuchte
(Aussen-T/F)
20 %
01-06-2005  17:29:03
95 %
30-05-2005  05:51:05
60.93 %
Taupunkt
(Aussen-T/F)
-0.83 C
01-06-2005  12:53:02
15.92 C
03-06-2005  21:08:41
7.94 C

Die Daten stammen von einer Davis Vantage Pro 2 Wetter-Station und werden unter Linux mit der Software wview2wettercgi und aufbereitet. Alle Angaben erfolgen ohne Gewähr für ihre Vollständigkeit oder Richtigkeit.
Kontakt: Rainer Krienke krienke@uni-koblenz.de . Meine Webseiten an der Uni Koblenz oder privat.
Version: $Revision: 0.78 $